createdAt,value
2023-02-20T00:00:59.554Z,100919.27
2023-02-20T00:03:26.317Z,100924.39
2023-02-20T00:05:53.233Z,100927.21
2023-02-20T00:08:19.744Z,100931.11
2023-02-20T00:10:46.214Z,100938.33
2023-02-20T00:13:12.701Z,100947.80
2023-02-20T00:15:39.255Z,100947.66
2023-02-20T00:18:05.754Z,100950.80
2023-02-20T00:20:32.239Z,100952.77
2023-02-20T00:22:58.967Z,100956.86
2023-02-20T00:25:25.462Z,100952.45
2023-02-20T00:27:51.979Z,100957.74
2023-02-20T00:30:21.172Z,100958.55
2023-02-20T00:32:49.173Z,100963.71
2023-02-20T00:35:16.859Z,100974.29
2023-02-20T00:37:44.057Z,100973.88
2023-02-20T00:40:11.209Z,100979.72
2023-02-20T00:42:37.733Z,100984.21
2023-02-20T00:45:05.260Z,100989.56
2023-02-20T00:47:31.787Z,100994.45
2023-02-20T00:49:58.266Z,100995.23
2023-02-20T00:52:25.114Z,100999.00
2023-02-20T00:54:51.739Z,101006.02
2023-02-20T00:57:18.243Z,101007.85
2023-02-20T00:59:44.865Z,101009.30
2023-02-20T01:02:11.380Z,101010.98
2023-02-20T01:04:38.354Z,101010.04
2023-02-20T01:07:04.846Z,101008.41
2023-02-20T01:09:31.341Z,101005.77
2023-02-20T01:11:57.902Z,101007.93
2023-02-20T01:14:24.407Z,101008.42
2023-02-20T01:16:53.236Z,101013.23
2023-02-20T01:19:21.252Z,101023.08
2023-02-20T01:21:47.781Z,101023.19
2023-02-20T01:24:15.493Z,101032.78
2023-02-20T01:26:43.763Z,101034.46
2023-02-20T01:29:10.276Z,101035.61
2023-02-20T01:31:36.915Z,101040.73
2023-02-20T01:34:04.179Z,101042.86
2023-02-20T01:36:30.728Z,101046.41
2023-02-20T01:38:57.645Z,101048.91
2023-02-20T01:41:25.298Z,101053.02
2023-02-20T01:43:51.815Z,101053.43
2023-02-20T01:46:44.611Z,101051.58
2023-02-20T01:49:15.884Z,101048.54
2023-02-20T01:51:46.948Z,101047.70
2023-02-20T01:54:16.703Z,101046.11
2023-02-20T01:56:44.602Z,101047.95
2023-02-20T01:59:12.233Z,101054.26
2023-02-20T02:01:39.069Z,101048.60
2023-02-20T02:04:09.426Z,101052.08
2023-02-20T02:06:40.863Z,101056.48
2023-02-20T02:09:38.242Z,101052.73
2023-02-20T02:12:04.956Z,101044.65
2023-02-20T02:14:31.634Z,101040.27
2023-02-20T02:17:04.220Z,101040.95
2023-02-20T02:20:00.915Z,101042.66
2023-02-20T02:23:24.554Z,101049.52
2023-02-20T02:26:21.587Z,101056.55
2023-02-20T02:29:03.168Z,101066.60
2023-02-20T02:31:54.765Z,101067.42
2023-02-20T02:34:27.022Z,101066.77
2023-02-20T02:37:02.528Z,101072.83
2023-02-20T02:39:48.172Z,101080.11
2023-02-20T02:42:35.724Z,101088.13
2023-02-20T02:45:13.004Z,101091.79
2023-02-20T02:47:45.363Z,101094.91
2023-02-20T02:50:34.121Z,101096.01
2023-02-20T02:53:02.004Z,101099.67
2023-02-20T02:55:30.558Z,101093.84
2023-02-20T02:57:57.187Z,101094.98
2023-02-20T03:00:29.681Z,101102.35
2023-02-20T03:03:24.513Z,101101.62
2023-02-20T03:06:15.241Z,101107.92
2023-02-20T03:08:50.241Z,101109.05
2023-02-20T03:11:19.504Z,101107.09
2023-02-20T03:13:53.523Z,101109.77
2023-02-20T03:16:26.550Z,101112.23
2023-02-20T03:19:00.127Z,101111.09
2023-02-20T03:21:29.589Z,101103.16
2023-02-20T03:23:59.939Z,101100.02
2023-02-20T03:26:34.424Z,101102.27
2023-02-20T03:29:28.281Z,101095.66
2023-02-20T03:32:00.311Z,101098.86
2023-02-20T03:34:28.081Z,101097.03
2023-02-20T03:36:58.755Z,101100.20
2023-02-20T03:39:31.004Z,101103.55
2023-02-20T03:42:01.133Z,101099.83
2023-02-20T03:44:30.056Z,101108.05
2023-02-20T03:46:58.892Z,101105.48
2023-02-20T03:49:31.576Z,101117.92
2023-02-20T03:51:58.746Z,101120.40
2023-02-20T03:54:27.681Z,101123.40
2023-02-20T03:56:59.546Z,101125.48
2023-02-20T03:59:48.449Z,101121.73
2023-02-20T04:02:22.181Z,101119.48
2023-02-20T04:04:53.149Z,101113.64
2023-02-20T04:07:25.603Z,101115.63
2023-02-20T04:09:54.413Z,101113.02
2023-02-20T04:12:29.668Z,101111.38
2023-02-20T04:14:59.079Z,101110.70
2023-02-20T04:17:37.730Z,101112.65
2023-02-20T04:20:04.538Z,101109.83
2023-02-20T04:22:35.936Z,101110.02
2023-02-20T04:25:12.210Z,101123.25
2023-02-20T04:27:39.275Z,101122.67
2023-02-20T04:30:06.648Z,101124.38
2023-02-20T04:32:33.186Z,101120.14
2023-02-20T04:34:59.670Z,101120.45
2023-02-20T04:37:26.188Z,101125.77
2023-02-20T04:39:52.663Z,101121.54
2023-02-20T04:42:19.173Z,101126.70
2023-02-20T04:44:45.656Z,101125.63
2023-02-20T04:47:16.062Z,101117.73
2023-02-20T04:49:42.839Z,101110.84
2023-02-20T04:52:09.326Z,101098.68
2023-02-20T04:54:36.325Z,101091.85
2023-02-20T04:57:02.787Z,101090.77
2023-02-20T04:59:29.307Z,101098.39
2023-02-20T05:01:55.801Z,101101.45
2023-02-20T05:04:22.809Z,101105.88
2023-02-20T05:06:53.185Z,101111.31
2023-02-20T05:09:20.781Z,101109.33
2023-02-20T05:11:47.404Z,101103.14
2023-02-20T05:14:14.785Z,101100.95
2023-02-20T05:16:42.732Z,101105.44
2023-02-20T05:19:09.412Z,101106.98
2023-02-20T05:21:35.937Z,101097.84
2023-02-20T05:24:04.025Z,101096.84
2023-02-20T05:26:32.008Z,101099.17
2023-02-20T05:28:58.509Z,101102.38
2023-02-20T05:31:25.067Z,101108.94
2023-02-20T05:33:51.621Z,101112.19
2023-02-20T05:36:18.283Z,101111.77
2023-02-20T05:38:44.811Z,101110.35
2023-02-20T05:41:11.289Z,101115.06
2023-02-20T05:43:37.763Z,101121.36
2023-02-20T05:46:04.564Z,101126.96
2023-02-20T05:48:31.088Z,101127.78
2023-02-20T05:50:57.558Z,101131.02
2023-02-20T05:53:24.465Z,101135.41
2023-02-20T05:55:50.902Z,101139.02
2023-02-20T05:58:17.385Z,101143.89
2023-02-20T06:00:43.872Z,101142.65
2023-02-20T06:03:10.386Z,101142.46
2023-02-20T06:05:36.863Z,101141.11
2023-02-20T06:08:03.557Z,101147.77
2023-02-20T06:10:30.130Z,101148.19
2023-02-20T06:12:56.626Z,101150.30
2023-02-20T06:15:23.209Z,101144.42
2023-02-20T06:17:49.797Z,101151.91
2023-02-20T06:20:16.327Z,101157.59
2023-02-20T06:22:43.268Z,101160.52
2023-02-20T06:25:10.212Z,101162.74
2023-02-20T06:27:39.217Z,101160.84
2023-02-20T06:30:06.296Z,101157.59
2023-02-20T06:32:32.830Z,101162.20
2023-02-20T06:34:59.421Z,101156.27
2023-02-20T06:37:25.905Z,101157.10
2023-02-20T06:39:52.371Z,101161.84
2023-02-20T06:42:18.925Z,101169.17
2023-02-20T06:44:45.416Z,101168.19
2023-02-20T06:47:11.917Z,101168.05
2023-02-20T06:49:38.849Z,101171.45
2023-02-20T06:52:06.446Z,101163.23
2023-02-20T06:54:33.170Z,101161.14
2023-02-20T06:57:00.519Z,101163.59
2023-02-20T06:59:27.082Z,101166.59
2023-02-20T07:01:53.605Z,101162.84
2023-02-20T07:04:23.432Z,101164.31
2023-02-20T07:06:50.573Z,101166.33
2023-02-20T07:09:17.206Z,101170.24
2023-02-20T07:11:44.137Z,101171.91
2023-02-20T07:14:10.752Z,101167.86
2023-02-20T07:16:37.258Z,101164.86
2023-02-20T07:19:03.767Z,101164.75
2023-02-20T07:21:30.238Z,101156.88
2023-02-20T07:23:56.726Z,101160.69
2023-02-20T07:26:26.412Z,101162.63
2023-02-20T07:28:54.817Z,101160.30
2023-02-20T07:31:21.930Z,101157.33
2023-02-20T07:33:48.446Z,101153.52
2023-02-20T07:36:15.893Z,101157.32
2023-02-20T07:38:43.073Z,101164.14
2023-02-20T07:41:09.991Z,101161.71
2023-02-20T07:43:36.523Z,101164.27
2023-02-20T07:46:03.148Z,101166.85
2023-02-20T07:48:29.634Z,101165.66
2023-02-20T07:50:56.156Z,101163.52
2023-02-20T07:53:22.695Z,101159.58
2023-02-20T07:55:49.169Z,101159.35
2023-02-20T07:58:15.704Z,101155.27
2023-02-20T08:00:42.186Z,101146.72
2023-02-20T08:03:08.657Z,101145.95
2023-02-20T08:05:48.084Z,101148.56
2023-02-20T08:08:15.406Z,101154.40
2023-02-20T08:10:41.890Z,101158.91
2023-02-20T08:13:08.425Z,101153.79
2023-02-20T08:15:34.905Z,101145.30
2023-02-20T08:18:01.406Z,101139.08
2023-02-20T08:20:27.982Z,101137.38
2023-02-20T08:22:54.515Z,101141.91
2023-02-20T08:25:21.004Z,101146.83
2023-02-20T08:27:49.391Z,101155.34
2023-02-20T08:30:24.729Z,101149.92
2023-02-20T08:32:52.406Z,101144.15
2023-02-20T08:35:19.894Z,101146.52
2023-02-20T08:37:46.475Z,101146.80
2023-02-20T08:40:13.706Z,101142.84
2023-02-20T08:42:40.202Z,101136.23
2023-02-20T08:45:08.419Z,101131.52
2023-02-20T08:47:35.006Z,101125.63
2023-02-20T08:50:01.501Z,101120.21
2023-02-20T08:52:28.067Z,101118.71
2023-02-20T08:54:54.569Z,101118.73
2023-02-20T08:57:21.126Z,101111.68
2023-02-20T08:59:47.639Z,101112.42
2023-02-20T09:02:19.874Z,101113.33
2023-02-20T09:04:46.896Z,101110.49
2023-02-20T09:07:14.299Z,101092.50
2023-02-20T09:09:41.305Z,101089.40
2023-02-20T09:12:09.182Z,101089.02
2023-02-20T09:14:36.542Z,101096.85
2023-02-20T09:17:03.062Z,101099.69
2023-02-20T09:19:29.608Z,101092.30
2023-02-20T09:21:56.265Z,101090.38
2023-02-20T09:24:23.353Z,101080.23
2023-02-20T09:26:49.868Z,101072.16
2023-02-20T09:29:16.509Z,101078.86
2023-02-20T09:31:43.167Z,101070.79
2023-02-20T09:34:17.875Z,101070.66
2023-02-20T09:36:55.542Z,101069.17
2023-02-20T09:39:22.572Z,101065.16
2023-02-20T09:42:03.990Z,101073.02
2023-02-20T09:44:39.242Z,101076.20
2023-02-20T09:47:26.242Z,101070.13
2023-02-20T09:49:53.954Z,101070.35
2023-02-20T09:52:20.582Z,101067.85
2023-02-20T09:54:53.720Z,101070.20
2023-02-20T09:57:26.902Z,101066.94
2023-02-20T10:00:17.412Z,101066.89
2023-02-20T10:02:54.997Z,101070.84
2023-02-20T10:05:25.939Z,101060.69
2023-02-20T10:07:52.862Z,101049.21
2023-02-20T10:10:19.351Z,101045.56
2023-02-20T10:12:54.868Z,101044.84
2023-02-20T10:15:24.391Z,101042.66
2023-02-20T10:18:06.985Z,101040.66
2023-02-20T10:20:45.410Z,101043.11
2023-02-20T10:23:33.844Z,101051.11
2023-02-20T10:26:05.399Z,101051.24
2023-02-20T10:28:31.920Z,101051.19
2023-02-20T10:31:07.357Z,101047.33
2023-02-20T10:33:41.672Z,101038.09
2023-02-20T10:36:23.541Z,101030.98
2023-02-20T10:38:55.937Z,101033.91
2023-02-20T10:41:34.063Z,101031.12
2023-02-20T10:44:52.375Z,101033.01
2023-02-20T10:47:45.588Z,101019.84
2023-02-20T10:50:37.405Z,101015.02
2023-02-20T10:53:06.784Z,101005.34
2023-02-20T10:55:46.171Z,100995.30
2023-02-20T10:58:15.980Z,100994.60
2023-02-20T11:00:51.148Z,100986.89
2023-02-20T11:04:06.151Z,100975.30
2023-02-20T11:06:38.183Z,100966.66
2023-02-20T11:09:05.109Z,100963.24
2023-02-20T11:11:36.575Z,100961.48
2023-02-20T11:14:13.465Z,100964.86
2023-02-20T11:16:51.288Z,100962.03
2023-02-20T11:19:46.281Z,100956.07
2023-02-20T11:22:14.525Z,100945.65
2023-02-20T11:24:46.024Z,100937.77
2023-02-20T11:27:17.993Z,100930.16
2023-02-20T11:30:16.365Z,100924.64
2023-02-20T11:32:43.096Z,100913.42
2023-02-20T11:35:18.666Z,100909.67
2023-02-20T11:38:23.214Z,100904.71
2023-02-20T11:40:55.597Z,100901.64
2023-02-20T11:43:38.469Z,100895.09
2023-02-20T11:46:24.338Z,100888.69
2023-02-20T11:49:22.728Z,100878.54
2023-02-20T11:51:50.422Z,100871.39
2023-02-20T11:54:23.667Z,100854.10
2023-02-20T11:57:06.871Z,100849.52
2023-02-20T11:59:35.106Z,100840.96
2023-02-20T12:02:16.635Z,100828.89
2023-02-20T12:05:01.392Z,100825.63
2023-02-20T12:07:34.120Z,100824.42
2023-02-20T12:10:16.617Z,100819.62
2023-02-20T12:12:43.231Z,100822.17
2023-02-20T12:15:29.932Z,100819.05
2023-02-20T12:18:02.191Z,100808.20
2023-02-20T12:20:30.077Z,100801.45
2023-02-20T12:23:18.053Z,100802.86
2023-02-20T12:26:06.263Z,100800.69
2023-02-20T12:29:00.893Z,100789.38
2023-02-20T12:31:33.363Z,100786.31
2023-02-20T12:34:10.844Z,100779.85
2023-02-20T12:36:44.357Z,100779.62
2023-02-20T12:39:39.887Z,100782.11
2023-02-20T12:42:21.527Z,100777.15
2023-02-20T12:44:56.973Z,100775.16
2023-02-20T12:47:31.661Z,100780.17
2023-02-20T12:50:01.000Z,100769.96
2023-02-20T12:52:33.619Z,100769.60
2023-02-20T12:55:19.358Z,100765.77
2023-02-20T12:57:53.445Z,100754.14
2023-02-20T13:00:32.330Z,100760.02
2023-02-20T13:03:08.655Z,100756.42
2023-02-20T13:05:40.282Z,100754.78
2023-02-20T13:08:35.280Z,100757.70
2023-02-20T13:11:06.725Z,100751.96
2023-02-20T13:14:08.797Z,100751.57
2023-02-20T13:16:42.211Z,100747.52
2023-02-20T13:19:22.272Z,100760.23
2023-02-20T13:21:49.573Z,100760.86
2023-02-20T13:24:18.778Z,100757.38
2023-02-20T13:26:59.333Z,100752.58
2023-02-20T13:29:28.366Z,100735.50
2023-02-20T13:32:19.524Z,100736.71
2023-02-20T13:34:46.237Z,100719.86
2023-02-20T13:37:34.710Z,100722.44
2023-02-20T13:40:39.944Z,100720.20
2023-02-20T13:43:12.520Z,100723.60
2023-02-20T13:45:44.812Z,100717.88
2023-02-20T13:48:37.444Z,100716.42
2023-02-20T13:51:15.794Z,100717.94
2023-02-20T13:53:45.382Z,100721.80
2023-02-20T13:56:36.452Z,100720.02
2023-02-20T13:59:02.972Z,100714.52
2023-02-20T14:01:29.515Z,100701.13
2023-02-20T14:04:06.433Z,100692.56
2023-02-20T14:06:33.323Z,100687.67
2023-02-20T14:09:14.703Z,100681.87
2023-02-20T14:11:41.187Z,100679.42
2023-02-20T14:14:11.439Z,100683.88
2023-02-20T14:16:43.143Z,100687.25
2023-02-20T14:19:23.842Z,100695.05
2023-02-20T14:21:50.633Z,100693.34
2023-02-20T14:24:17.035Z,100698.12
2023-02-20T14:26:43.561Z,100702.70
2023-02-20T14:29:24.343Z,100700.77
2023-02-20T14:31:52.984Z,100686.72
2023-02-20T14:34:33.375Z,100677.60
2023-02-20T14:37:11.973Z,100673.92
2023-02-20T14:39:38.403Z,100673.58
2023-02-20T14:42:12.679Z,100670.78
2023-02-20T14:44:39.218Z,100670.44
2023-02-20T14:47:15.979Z,100662.90
2023-02-20T14:49:42.577Z,100659.77
2023-02-20T14:52:25.567Z,100670.33
2023-02-20T14:54:58.177Z,100667.55
2023-02-20T14:57:24.861Z,100657.20
2023-02-20T14:59:51.310Z,100667.94
2023-02-20T15:02:33.892Z,100660.77
2023-02-20T15:05:05.055Z,100662.72
2023-02-20T15:07:32.027Z,100647.81
2023-02-20T15:10:02.096Z,100647.11
2023-02-20T15:12:34.381Z,100649.41
2023-02-20T15:15:06.576Z,100655.02
2023-02-20T15:17:35.515Z,100645.89
2023-02-20T15:20:36.008Z,100647.30
2023-02-20T15:23:15.124Z,100638.55
2023-02-20T15:25:43.630Z,100630.65
2023-02-20T15:28:18.958Z,100633.27
2023-02-20T15:31:06.852Z,100628.71
2023-02-20T15:33:36.170Z,100629.77
2023-02-20T15:36:04.760Z,100622.93
2023-02-20T15:38:34.398Z,100619.95
2023-02-20T15:41:02.799Z,100615.05
2023-02-20T15:43:45.176Z,100612.23
2023-02-20T15:46:13.902Z,100616.61
2023-02-20T15:48:40.752Z,100608.02
2023-02-20T15:51:08.799Z,100599.42
2023-02-20T15:53:36.171Z,100596.09
2023-02-20T15:56:03.580Z,100591.34
2023-02-20T15:58:35.423Z,100590.63
2023-02-20T16:01:02.919Z,100586.60
2023-02-20T16:03:33.901Z,100581.32
2023-02-20T16:06:05.896Z,100578.50
2023-02-20T16:08:32.455Z,100578.67
2023-02-20T16:10:59.539Z,100570.77
2023-02-20T16:13:38.777Z,100566.02
2023-02-20T16:16:25.130Z,100561.63
2023-02-20T16:18:52.944Z,100564.42
2023-02-20T16:21:21.267Z,100569.14
2023-02-20T16:23:48.025Z,100563.34
2023-02-20T16:26:14.956Z,100558.96
2023-02-20T16:28:41.540Z,100554.71
2023-02-20T16:31:11.919Z,100543.66
2023-02-20T16:33:38.557Z,100539.61
2023-02-20T16:36:05.518Z,100540.48
2023-02-20T16:38:33.444Z,100540.80
2023-02-20T16:41:00.144Z,100540.09
2023-02-20T16:43:26.710Z,100536.92
2023-02-20T16:45:53.192Z,100539.53
2023-02-20T16:48:21.120Z,100538.98
2023-02-20T16:50:50.402Z,100539.66
2023-02-20T16:53:17.014Z,100533.33
2023-02-20T16:55:43.525Z,100528.77
2023-02-20T16:58:10.278Z,100526.30
2023-02-20T17:00:50.987Z,100525.92
2023-02-20T17:03:23.377Z,100522.40
2023-02-20T17:05:49.928Z,100526.06
2023-02-20T17:08:16.506Z,100519.74
2023-02-20T17:10:42.983Z,100519.54
2023-02-20T17:13:09.449Z,100511.68
2023-02-20T17:15:37.647Z,100521.99
2023-02-20T17:18:04.939Z,100520.40
2023-02-20T17:20:31.563Z,100513.40
2023-02-20T17:23:04.921Z,100514.45
2023-02-20T17:25:33.389Z,100510.58
2023-02-20T17:27:59.902Z,100505.67
2023-02-20T17:30:26.773Z,100498.83
2023-02-20T17:32:53.445Z,100500.58
2023-02-20T17:35:19.933Z,100507.56
2023-02-20T17:37:46.402Z,100509.82
2023-02-20T17:40:13.525Z,100512.79
2023-02-20T17:42:40.039Z,100507.71
2023-02-20T17:45:06.914Z,100506.29
2023-02-20T17:47:33.445Z,100510.14
2023-02-20T17:50:00.348Z,100508.72
2023-02-20T17:52:26.879Z,100507.66
2023-02-20T17:54:53.405Z,100508.71
2023-02-20T17:57:19.875Z,100509.21
2023-02-20T17:59:47.669Z,100503.78
2023-02-20T18:02:14.249Z,100509.55
2023-02-20T18:04:41.424Z,100510.05
2023-02-20T18:07:09.048Z,100511.27
2023-02-20T18:09:35.676Z,100508.64
2023-02-20T18:12:03.779Z,100503.20
2023-02-20T18:14:30.595Z,100495.33
2023-02-20T18:16:57.190Z,100493.22
2023-02-20T18:19:23.801Z,100490.59
2023-02-20T18:21:51.239Z,100481.87
2023-02-20T18:24:22.309Z,100472.06
2023-02-20T18:26:51.145Z,100473.27
2023-02-20T18:29:17.997Z,100472.05
2023-02-20T18:31:44.624Z,100465.40
2023-02-20T18:34:11.282Z,100461.52
2023-02-20T18:36:37.813Z,100462.74
2023-02-20T18:39:04.849Z,100461.86
2023-02-20T18:41:31.675Z,100455.38
2023-02-20T18:43:58.246Z,100450.14
2023-02-20T18:46:33.468Z,100442.97
2023-02-20T18:49:00.662Z,100444.35
2023-02-20T18:51:29.121Z,100439.26
2023-02-20T18:53:56.261Z,100439.08
2023-02-20T18:56:24.417Z,100431.70
2023-02-20T18:58:51.195Z,100437.09
2023-02-20T19:01:18.538Z,100435.50
2023-02-20T19:03:52.936Z,100431.46
2023-02-20T19:06:34.543Z,100424.95
2023-02-20T19:09:01.753Z,100424.42
2023-02-20T19:11:28.848Z,100412.50
2023-02-20T19:13:55.496Z,100415.09
2023-02-20T19:16:22.527Z,100411.92
2023-02-20T19:18:50.740Z,100415.05
2023-02-20T19:21:19.513Z,100409.95
2023-02-20T19:23:47.202Z,100412.19
2023-02-20T19:26:14.455Z,100408.67
2023-02-20T19:28:41.224Z,100405.33
2023-02-20T19:31:08.949Z,100402.00
2023-02-20T19:33:35.429Z,100401.27
2023-02-20T19:36:02.024Z,100398.11
2023-02-20T19:38:28.572Z,100396.69
2023-02-20T19:40:55.065Z,100394.07
2023-02-20T19:43:21.726Z,100390.39
2023-02-20T19:45:48.296Z,100388.63
2023-02-20T19:48:15.604Z,100379.52
2023-02-20T19:50:44.841Z,100379.51
2023-02-20T19:53:11.357Z,100377.93
2023-02-20T19:55:37.906Z,100377.39
2023-02-20T19:58:04.467Z,100374.41
2023-02-20T20:00:30.931Z,100369.83
2023-02-20T20:02:57.396Z,100361.61
2023-02-20T20:05:24.857Z,100355.48
2023-02-20T20:07:51.670Z,100350.75
2023-02-20T20:10:20.564Z,100349.86
2023-02-20T20:12:47.137Z,100345.48
2023-02-20T20:15:20.120Z,100340.91
2023-02-20T20:17:47.917Z,100338.99
2023-02-20T20:20:16.555Z,100336.88
2023-02-20T20:22:43.058Z,100340.88
2023-02-20T20:25:10.393Z,100343.66
2023-02-20T20:27:37.211Z,100339.82
2023-02-20T20:30:06.000Z,100335.98
2023-02-20T20:32:32.588Z,100335.98
2023-02-20T20:34:59.549Z,100339.11
2023-02-20T20:37:26.982Z,100338.60
2023-02-20T20:39:55.461Z,100340.21
2023-02-20T20:42:23.615Z,100338.16
2023-02-20T20:44:51.663Z,100335.91
2023-02-20T20:47:18.949Z,100335.42
2023-02-20T20:49:45.482Z,100330.92
2023-02-20T20:52:12.044Z,100324.30
2023-02-20T20:54:39.017Z,100319.09
2023-02-20T20:57:05.525Z,100319.64
2023-02-20T20:59:31.996Z,100321.59
2023-02-20T21:01:58.573Z,100323.20
2023-02-20T21:04:25.244Z,100319.95
2023-02-20T21:06:51.705Z,100314.39
2023-02-20T21:09:18.268Z,100308.82
2023-02-20T21:11:44.869Z,100311.46
2023-02-20T21:14:11.402Z,100314.27
2023-02-20T21:16:37.920Z,100315.33
2023-02-20T21:19:04.601Z,100311.84
2023-02-20T21:21:31.828Z,100316.56
2023-02-20T21:23:58.930Z,100312.54
2023-02-20T21:26:25.386Z,100309.05
2023-02-20T21:28:55.164Z,100303.46
2023-02-20T21:31:21.914Z,100303.82
2023-02-20T21:33:53.119Z,100306.45
2023-02-20T21:36:20.986Z,100304.18
2023-02-20T21:38:47.484Z,100306.95
2023-02-20T21:41:18.927Z,100308.36
2023-02-20T21:43:45.408Z,100306.08
2023-02-20T21:46:11.955Z,100306.94
2023-02-20T21:48:38.603Z,100307.81
2023-02-20T21:51:05.118Z,100312.00
2023-02-20T21:53:31.583Z,100312.70
2023-02-20T21:55:58.753Z,100315.14
2023-02-20T21:58:25.247Z,100310.23
2023-02-20T22:00:51.706Z,100309.90
2023-02-20T22:03:18.405Z,100300.10
2023-02-20T22:05:44.882Z,100285.77
2023-02-20T22:08:11.365Z,100279.64
2023-02-20T22:10:37.836Z,100273.00
2023-02-20T22:13:04.415Z,100269.84
2023-02-20T22:15:30.923Z,100269.44
2023-02-20T22:17:57.571Z,100257.70
2023-02-20T22:20:24.055Z,100250.37
2023-02-20T22:22:50.687Z,100247.91
2023-02-20T22:25:17.494Z,100246.15
2023-02-20T22:27:43.981Z,100250.15
2023-02-20T22:30:11.173Z,100249.27
2023-02-20T22:32:37.786Z,100246.09
2023-02-20T22:35:11.610Z,100246.08
2023-02-20T22:37:39.038Z,100244.83
2023-02-20T22:40:05.960Z,100240.45
2023-02-20T22:42:35.339Z,100245.15
2023-02-20T22:45:02.472Z,100238.50
2023-02-20T22:47:29.567Z,100238.84
2023-02-20T22:49:56.111Z,100240.75
2023-02-20T22:52:22.573Z,100237.58
2023-02-20T22:55:03.574Z,100238.79
2023-02-20T22:57:31.041Z,100239.10
2023-02-20T22:59:57.865Z,100240.29
2023-02-20T23:02:24.350Z,100236.94
2023-02-20T23:04:50.822Z,100239.50
2023-02-20T23:07:17.356Z,100241.21
2023-02-20T23:09:44.246Z,100238.02
2023-02-20T23:12:13.569Z,100240.08
2023-02-20T23:14:40.921Z,100238.80
2023-02-20T23:17:07.996Z,100238.05
2023-02-20T23:19:34.459Z,100235.91
2023-02-20T23:22:00.945Z,100233.08
2023-02-20T23:24:27.449Z,100228.34
2023-02-20T23:26:54.949Z,100228.66
2023-02-20T23:29:21.593Z,100225.49
2023-02-20T23:31:48.110Z,100226.16
2023-02-20T23:34:14.875Z,100226.31
2023-02-20T23:36:47.448Z,100225.58
2023-02-20T23:39:14.006Z,100226.77
2023-02-20T23:41:44.990Z,100221.85
2023-02-20T23:44:12.418Z,100219.02
2023-02-20T23:46:44.814Z,100219.00
2023-02-20T23:49:11.273Z,100215.48
2023-02-20T23:51:37.789Z,100214.23
2023-02-20T23:54:04.515Z,100207.76
2023-02-20T23:56:31.041Z,100207.02
2023-02-20T23:58:57.594Z,100203.18
